Time;durP1;ratioP1;P1;durP2;ratioP2;P2;SDS_P1;SDS_P2;PMS_P1;PMS_P2;Temp;Humidity;BMP_temperature;BMP_pressure;BME280_temperature;BME280_humidity;BME280_pressure;Samples;Min_cycle;Max_cycle;Signal;HPM_P1;HPM_P2
2022/05/09 00:01:53;;;;;;;0.00;0.00;;;;;;;12.74;69.94;99502.84;5049653;28;20028;-86
2022/05/09 00:04:19;;;;;;;0.05;0.05;;;;;;;12.70;69.55;99499.94;5049459;28;20037;-85
2022/05/09 00:06:46;;;;;;;0.00;0.00;;;;;;;12.72;69.92;99505.00;5048972;28;20076;-85
2022/05/09 00:09:12;;;;;;;0.10;0.10;;;;;;;12.73;69.42;99498.56;5049417;28;20131;-85
2022/05/09 00:11:37;;;;;;;0.10;0.10;;;;;;;12.71;69.37;99503.44;5049561;28;20108;-82
2022/05/09 00:14:03;;;;;;;0.00;0.00;;;;;;;12.68;69.69;99503.97;5049368;28;20025;-80
2022/05/09 00:16:33;;;;;;;0.10;0.10;;;;;;;12.64;69.80;99504.50;5051016;28;20032;-84
2022/05/09 00:19:03;;;;;;;0.10;0.10;;;;;;;12.59;69.56;99496.50;5064612;28;20029;-85
2022/05/09 00:21:40;;;;;;;0.00;0.00;;;;;;;12.56;69.57;99504.31;5049594;28;20166;-84
2022/05/09 00:24:09;;;;;;;0.00;0.00;;;;;;;12.52;69.59;99505.94;5053172;28;20067;-84
2022/05/09 00:26:35;;;;;;;5.25;0.52;;;;;;;12.46;69.75;99505.97;5053608;28;20029;-82
2022/05/09 00:29:03;;;;;;;0.00;0.00;;;;;;;12.43;69.72;99503.84;5053742;28;20033;-86
2022/05/09 00:31:29;;;;;;;0.00;0.00;;;;;;;12.36;69.83;99497.97;5070179;28;20032;-89
2022/05/09 00:33:55;;;;;;;0.00;0.00;;;;;;;12.30;70.14;99499.09;5069961;28;20275;-83
2022/05/09 00:36:21;;;;;;;0.10;0.10;;;;;;;12.25;70.75;99504.47;5053322;28;20068;-83
2022/05/09 00:38:49;;;;;;;0.10;0.10;;;;;;;12.18;70.72;99502.09;5053262;28;20032;-83
2022/05/09 00:44:11;;;;;;;0.00;0.00;;;;;;;12.15;70.06;99503.44;5054051;28;20044;-84
2022/05/09 00:46:39;;;;;;;0.00;0.00;;;;;;;12.08;70.47;99500.25;5053325;28;20033;-84
2022/05/09 00:49:19;;;;;;;0.00;0.00;;;;;;;12.05;70.76;99502.69;5053060;28;20028;-83
2022/05/09 00:52:05;;;;;;;0.10;0.10;;;;;;;12.04;70.92;99503.78;5053313;28;20047;-86
2022/05/09 00:54:39;;;;;;;0.05;0.05;;;;;;;12.07;70.99;99495.16;5052495;28;20064;-82
2022/05/09 00:57:10;;;;;;;0.10;0.10;;;;;;;12.03;70.17;99499.47;5053151;28;20515;-83
2022/05/09 00:59:39;;;;;;;0.00;0.00;;;;;;;11.99;70.13;99504.59;5053135;28;20120;-81
2022/05/09 01:02:04;;;;;;;0.00;0.00;;;;;;;11.95;70.34;99500.81;5053031;28;20056;-82
2022/05/09 01:04:38;;;;;;;0.00;0.00;;;;;;;11.94;70.08;99510.72;5052194;28;20668;-83
2022/05/09 01:07:04;;;;;;;0.10;0.10;;;;;;;11.92;70.19;99502.16;5069644;28;20602;-89
2022/05/09 01:09:29;;;;;;;0.00;0.00;;;;;;;11.94;70.46;99496.53;5052742;28;20029;-83
2022/05/09 01:11:55;;;;;;;0.00;0.00;;;;;;;11.90;69.86;99508.88;5052918;28;20036;-83
2022/05/09 01:14:30;;;;;;;0.10;0.10;;;;;;;11.88;70.13;99498.44;5052640;28;20116;-83
2022/05/09 01:17:01;;;;;;;0.00;0.00;;;;;;;11.89;69.66;99505.41;5052842;28;20484;-82
2022/05/09 01:19:42;;;;;;;0.00;0.00;;;;;;;11.87;69.03;99504.84;5051851;28;20386;-79
2022/05/09 01:22:26;;;;;;;0.00;0.00;;;;;;;11.84;68.92;99500.84;5052482;28;20503;-81
2022/05/09 01:24:54;;;;;;;0.10;0.10;;;;;;;11.87;69.18;99504.84;5052687;28;20056;-90
2022/05/09 01:27:20;;;;;;;0.00;0.00;;;;;;;11.79;69.29;99502.72;5052490;28;20029;-84
2022/05/09 01:29:54;;;;;;;0.10;0.10;;;;;;;11.75;68.61;99513.19;5052329;28;20115;-83
2022/05/09 01:32:39;;;;;;;0.00;0.00;;;;;;;11.71;68.92;99501.44;5053220;28;20488;-83
2022/05/09 01:35:16;;;;;;;0.00;0.00;;;;;;;11.62;69.55;99501.19;5051352;28;20579;-80
2022/05/09 01:37:47;;;;;;;0.00;0.00;;;;;;;11.56;69.92;99506.81;5052432;28;20021;-80
2022/05/09 01:40:12;;;;;;;0.00;0.00;;;;;;;11.56;69.94;99513.00;5051798;28;20504;-81
2022/05/09 01:42:40;;;;;;;0.00;0.00;;;;;;;11.50;69.75;99508.72;5052232;28;20113;-80
2022/05/09 01:45:07;;;;;;;0.00;0.00;;;;;;;11.48;69.97;99508.16;5052247;28;20029;-80
2022/05/09 01:50:16;;;;;;;0.00;0.00;;;;;;;11.51;69.60;99500.41;5053244;28;20420;-78
2022/05/09 01:52:41;;;;;;;0.03;0.03;;;;;;;11.51;69.67;99504.94;5052127;28;20024;-79
2022/05/09 01:55:07;;;;;;;0.00;0.00;;;;;;;11.50;69.54;99503.34;5052086;28;20067;-79
2022/05/09 01:57:32;;;;;;;0.00;0.00;;;;;;;11.47;69.50;99501.19;5051705;28;20406;-82
2022/05/09 01:59:58;;;;;;;0.00;0.00;;;;;;;11.44;69.10;99507.91;5052029;28;20041;-84
2022/05/09 02:02:23;;;;;;;0.00;0.00;;;;;;;11.42;69.03;99493.97;5051142;28;20594;-78
2022/05/09 02:04:49;;;;;;;0.00;0.00;;;;;;;11.37;69.33;99502.81;5051778;28;20036;-79
2022/05/09 02:07:16;;;;;;;0.08;0.08;;;;;;;11.36;69.45;99511.94;5051614;28;20102;-81
2022/05/09 02:09:44;;;;;;;0.00;0.00;;;;;;;11.37;69.60;99505.50;5051855;28;20032;-82
2022/05/09 02:12:11;;;;;;;0.00;0.00;;;;;;;11.40;69.78;99508.72;5051638;28;20052;-77
2022/05/09 02:14:37;;;;;;;0.00;0.00;;;;;;;11.44;69.50;99507.13;5051757;28;20138;-79
2022/05/09 02:17:04;;;;;;;0.00;0.00;;;;;;;11.40;69.74;99503.34;5050972;28;20035;-76
2022/05/09 02:19:30;;;;;;;0.00;0.00;;;;;;;11.34;70.05;99503.38;5051466;28;20040;-76
2022/05/09 02:21:56;;;;;;;0.00;0.00;;;;;;;11.37;70.12;99502.81;5051518;28;20107;-76
2022/05/09 02:24:22;;;;;;;0.00;0.00;;;;;;;11.31;70.29;99506.56;5068035;28;20054;-76
2022/05/09 02:26:48;;;;;;;0.00;0.00;;;;;;;11.29;70.59;99507.91;5051318;28;20025;-79
2022/05/09 02:29:14;;;;;;;0.00;0.00;;;;;;;11.30;70.91;99509.53;5051135;28;20025;-80
2022/05/09 02:31:39;;;;;;;0.00;0.00;;;;;;;11.28;70.82;99506.31;5050941;28;20032;-80
2022/05/09 02:34:04;;;;;;;0.00;0.00;;;;;;;11.29;71.44;99497.19;5051288;28;20037;-82
2022/05/09 02:36:30;;;;;;;0.00;0.00;;;;;;;11.27;71.36;99502.84;5050952;28;20037;-81
2022/05/09 02:38:55;;;;;;;0.00;0.00;;;;;;;11.21;72.26;99498.56;5051154;28;20111;-82
2022/05/09 02:41:22;;;;;;;0.00;0.00;;;;;;;11.20;72.27;99510.34;5050778;28;20459;-79
2022/05/09 02:43:47;;;;;;;0.03;0.03;;;;;;;11.16;71.76;99506.59;5052435;28;20056;-78
2022/05/09 02:46:13;;;;;;;0.00;0.00;;;;;;;11.14;72.30;99514.88;5051374;28;20064;-78
2022/05/09 02:48:38;;;;;;;0.00;0.00;;;;;;;11.14;72.36;99514.88;5050997;28;20083;-78
2022/05/09 02:51:06;;;;;;;0.00;0.00;;;;;;;11.04;72.73;99502.28;5052291;28;20028;-79
2022/05/09 02:53:32;;;;;;;0.03;0.03;;;;;;;11.01;72.97;99510.88;5052042;28;20059;-80
2022/05/09 02:55:57;;;;;;;0.00;0.00;;;;;;;10.98;73.50;99519.44;5052202;28;20025;-82
2022/05/09 02:58:23;;;;;;;0.00;0.00;;;;;;;11.01;73.40;99520.75;5050583;28;20083;-80
2022/05/09 03:00:49;;;;;;;0.00;0.00;;;;;;;10.93;73.94;99518.63;5050738;28;20033;-80
2022/05/09 03:05:59;;;;;;;0.00;0.00;;;;;;;10.88;75.08;99522.91;5052016;28;20102;-77
2022/05/09 03:08:25;;;;;;;0.22;0.22;;;;;;;10.87;74.76;99526.63;5051688;28;20025;-80
2022/05/09 03:10:51;;;;;;;0.00;0.00;;;;;;;10.86;74.85;99525.06;5052252;28;20063;-78
2022/05/09 03:13:16;;;;;;;0.17;0.17;;;;;;;10.88;75.42;99527.47;5051406;28;20032;-79
2022/05/09 03:15:46;;;;;;;0.17;0.17;;;;;;;10.87;75.59;99536.53;5051641;28;20453;-80
2022/05/09 03:18:13;;;;;;;0.00;0.00;;;;;;;10.83;75.62;99533.59;5050367;28;20033;-80
2022/05/09 03:20:39;;;;;;;0.00;0.00;;;;;;;10.83;76.79;99536.28;5050352;28;20021;-81
2022/05/09 03:23:07;;;;;;;0.00;0.00;;;;;;;10.89;75.92;99543.22;5050249;28;20025;-80
2022/05/09 03:25:33;;;;;;;0.00;0.00;;;;;;;10.88;76.45;99544.31;5050015;28;20512;-78
2022/05/09 03:27:59;;;;;;;0.00;0.00;;;;;;;10.88;76.29;99546.97;5051444;28;20036;-80
2022/05/09 03:30:25;;;;;;;0.00;0.00;;;;;;;10.87;76.60;99548.03;5048395;28;20033;-79
2022/05/09 03:32:52;;;;;;;0.10;0.10;;;;;;;10.87;76.60;99547.25;5030975;28;20496;-79
2022/05/09 03:35:18;;;;;;;0.10;0.10;;;;;;;10.88;76.84;99554.22;5053664;28;20040;-81
2022/05/09 03:37:44;;;;;;;0.00;0.00;;;;;;;10.88;76.89;99556.88;5050343;28;20025;-84
2022/05/09 03:40:10;;;;;;;0.30;0.30;;;;;;;10.92;76.58;99552.59;5045817;28;20051;-82
2022/05/09 03:42:36;;;;;;;0.20;0.20;;;;;;;10.85;76.68;99547.53;5049834;28;20052;-82
2022/05/09 03:45:02;;;;;;;0.50;0.50;;;;;;;10.86;77.05;99556.34;5066568;28;20087;-85
2022/05/09 03:47:27;;;;;;;0.20;0.20;;;;;;;10.91;77.63;99555.56;5049693;28;20032;-80
2022/05/09 03:49:55;;;;;;;0.50;0.50;;;;;;;10.73;77.81;99547.75;5049148;28;20029;-77
2022/05/09 03:52:21;;;;;;;0.15;0.15;;;;;;;10.72;78.42;99561.41;5037183;28;20033;-83
2022/05/09 03:54:47;;;;;;;0.10;0.10;;;;;;;10.75;77.99;99560.06;5030190;28;20124;-77
2022/05/09 03:57:12;;;;;;;3.63;0.75;;;;;;;10.69;78.44;99554.72;5049186;28;20028;-78
2022/05/09 03:59:37;;;;;;;0.82;0.82;;;;;;;10.66;78.88;99560.59;5050637;28;20029;-79
2022/05/09 04:02:03;;;;;;;0.28;0.28;;;;;;;10.63;78.34;99554.97;5049576;28;20021;-79
2022/05/09 04:04:28;;;;;;;0.10;0.10;;;;;;;10.76;78.65;99559.00;5049082;28;20053;-78
2022/05/09 04:06:54;;;;;;;0.10;0.10;;;;;;;10.79;78.21;99559.28;5049346;28;20062;-79
2022/05/09 04:09:20;;;;;;;0.00;0.00;;;;;;;10.72;78.43;99564.09;5049057;28;20119;-81
2022/05/09 04:11:47;;;;;;;0.00;0.00;;;;;;;10.65;79.41;99563.53;5049389;28;20033;-77
2022/05/09 04:14:13;;;;;;;0.13;0.13;;;;;;;10.66;79.51;99560.59;5050698;28;20037;-78
2022/05/09 04:16:51;;;;;;;0.10;0.10;;;;;;;10.67;79.03;99562.19;5048764;28;20388;-76
2022/05/09 04:19:18;;;;;;;0.00;0.00;;;;;;;10.72;79.25;99562.19;5050587;28;20389;-79
2022/05/09 04:21:45;;;;;;;0.00;0.00;;;;;;;10.77;79.47;99568.66;5046159;28;20026;-75
2022/05/09 04:24:11;;;;;;;0.10;0.10;;;;;;;10.71;79.31;99568.63;5044484;28;20025;-80
2022/05/09 04:26:37;;;;;;;0.35;0.35;;;;;;;10.81;79.47;99569.72;5063223;28;20025;-82
2022/05/09 04:29:03;;;;;;;0.00;0.00;;;;;;;10.84;79.75;99571.84;5048053;28;20204;-82
2022/05/09 04:31:28;;;;;;;0.30;0.30;;;;;;;10.87;79.56;99574.00;5048528;28;20043;-80
2022/05/09 04:33:55;;;;;;;0.05;0.05;;;;;;;10.95;79.27;99572.69;5066012;28;20473;-83
2022/05/09 04:36:26;;;;;;;0.08;0.08;;;;;;;11.03;79.17;99580.19;5065668;28;20029;-83
2022/05/09 04:38:52;;;;;;;0.00;0.00;;;;;;;10.97;79.24;99578.56;5049156;28;20173;-81
2022/05/09 04:41:19;;;;;;;0.13;0.13;;;;;;;11.03;78.99;99575.66;5065069;28;20037;-81
2022/05/09 04:43:46;;;;;;;0.47;0.47;;;;;;;11.07;78.50;99575.09;5049098;28;20227;-82
2022/05/09 04:46:14;;;;;;;0.08;0.08;;;;;;;11.00;78.16;99576.16;5049222;28;20045;-81
2022/05/09 04:48:41;;;;;;;0.90;0.82;;;;;;;11.08;78.84;99579.41;5065910;28;20444;-82
2022/05/09 04:51:08;;;;;;;0.55;0.40;;;;;;;10.96;78.16;99587.66;5065837;28;20043;-80
2022/05/09 04:53:34;;;;;;;0.00;0.00;;;;;;;10.95;79.17;99584.19;5065612;28;20032;-80
2022/05/09 04:56:00;;;;;;;0.30;0.30;;;;;;;10.96;78.91;99588.47;5065780;28;20033;-81
2022/05/09 04:58:26;;;;;;;0.30;0.30;;;;;;;11.02;78.88;99591.97;5065583;28;20039;-81
2022/05/09 05:00:52;;;;;;;1.20;1.17;;;;;;;11.09;78.86;99584.47;5065738;28;20102;-81
2022/05/09 05:03:17;;;;;;;0.00;0.00;;;;;;;11.15;78.58;99593.31;5065422;28;20024;-81
2022/05/09 05:05:43;;;;;;;1.65;0.30;;;;;;;11.24;78.70;99594.38;5065748;28;20543;-81
2022/05/09 05:08:11;;;;;;;0.00;0.00;;;;;;;11.25;78.04;99600.56;5049545;28;20053;-80
2022/05/09 05:10:37;;;;;;;4.07;0.45;;;;;;;11.34;77.38;99601.66;5069192;28;20086;-82
2022/05/09 05:13:03;;;;;;;1.48;0.85;;;;;;;11.28;78.48;99605.38;5069362;28;20024;-81
2022/05/09 05:15:29;;;;;;;0.10;0.10;;;;;;;11.26;78.04;99602.97;5069065;28;20207;-81
2022/05/09 05:17:55;;;;;;;0.50;0.50;;;;;;;11.23;78.20;99605.38;5069311;28;20028;-81
2022/05/09 05:20:21;;;;;;;0.00;0.00;;;;;;;11.36;78.38;99615.56;5069027;28;20025;-80
2022/05/09 05:22:48;;;;;;;0.00;0.00;;;;;;;11.29;78.08;99610.47;5069112;28;20507;-81
2022/05/09 05:25:18;;;;;;;0.10;0.10;;;;;;;11.42;78.20;99619.06;5052460;28;20099;-81
2022/05/09 05:27:44;;;;;;;0.30;0.30;;;;;;;11.39;78.37;99617.72;5069004;28;20029;-81
2022/05/09 05:30:10;;;;;;;0.40;0.40;;;;;;;11.47;78.27;99619.06;5052434;28;20066;-81
2022/05/09 05:32:37;;;;;;;0.00;0.00;;;;;;;11.54;78.15;99627.63;5068894;28;20025;-80
2022/05/09 05:35:08;;;;;;;0.20;0.20;;;;;;;11.60;78.31;99621.19;5052247;28;20033;-80
2022/05/09 05:37:34;;;;;;;0.00;0.00;;;;;;;11.68;77.82;99622.50;5052006;28;20131;-80
2022/05/09 05:40:03;;;;;;;0.10;0.10;;;;;;;11.72;76.92;99617.44;5068695;28;20496;-80
2022/05/09 05:42:29;;;;;;;0.30;0.30;;;;;;;11.72;76.95;99620.09;5068660;28;20032;-80
2022/05/09 05:44:55;;;;;;;0.10;0.10;;;;;;;11.75;76.47;99624.94;5068724;28;20212;-80
2022/05/09 05:47:22;;;;;;;0.98;0.70;;;;;;;11.74;76.82;99617.97;5068477;28;20061;-83
2022/05/09 05:49:48;;;;;;;1.03;0.73;;;;;;;11.62;77.13;99613.69;5051964;28;20037;-81
2022/05/09 05:52:15;;;;;;;0.17;0.17;;;;;;;11.66;77.21;99616.66;5068563;28;20263;-81
2022/05/09 05:54:42;;;;;;;1.00;0.68;;;;;;;11.74;77.86;99615.28;5051639;28;20029;-81
2022/05/09 05:57:22;;;;;;;1.48;0.75;;;;;;;11.79;76.88;99621.47;5068712;28;20039;-80
2022/05/09 05:59:53;;;;;;;0.20;0.20;;;;;;;11.80;77.16;99625.75;5051920;28;20020;-81
2022/05/09 06:02:19;;;;;;;0.32;0.32;;;;;;;11.78;77.00;99619.03;5068146;28;20025;-80
2022/05/09 06:04:45;;;;;;;1.13;1.13;;;;;;;11.79;76.98;99628.69;5051716;28;20031;-81
2022/05/09 06:07:12;;;;;;;0.38;0.38;;;;;;;11.83;76.56;99624.41;5068385;28;20497;-81
2022/05/09 06:09:39;;;;;;;0.40;0.40;;;;;;;11.93;76.06;99626.25;5068185;28;20024;-80
2022/05/09 06:12:04;;;;;;;1.75;1.27;;;;;;;11.95;75.23;99626.78;5068383;28;20037;-80
2022/05/09 06:14:30;;;;;;;0.20;0.20;;;;;;;12.01;76.49;99626.53;5068032;28;20561;-80
2022/05/09 06:16:55;;;;;;;0.20;0.20;;;;;;;12.19;76.01;99623.56;5068231;28;20040;-81
2022/05/09 06:19:21;;;;;;;0.80;0.65;;;;;;;12.47;74.89;99624.81;5067881;28;20127;-80
2022/05/09 06:21:47;;;;;;;0.30;0.30;;;;;;;12.57;73.98;99632.84;5052446;28;20420;-80
2022/05/09 06:24:13;;;;;;;0.00;0.00;;;;;;;12.75;73.52;99625.22;5068016;28;20029;-81
2022/05/09 06:26:40;;;;;;;0.00;0.00;;;;;;;13.06;73.11;99619.69;5067789;28;20039;-80
2022/05/09 06:29:06;;;;;;;0.20;0.20;;;;;;;13.27;71.91;99629.22;5067950;28;20040;-79
2022/05/09 06:31:34;;;;;;;0.13;0.13;;;;;;;13.57;71.38;99618.53;5067662;28;20095;-80
2022/05/09 06:33:59;;;;;;;1.80;1.20;;;;;;;13.95;69.54;99631.38;5067910;28;20440;-79
2022/05/09 06:36:24;;;;;;;0.65;0.63;;;;;;;14.23;67.42;99621.69;5067647;28;20356;-80
2022/05/09 06:38:50;;;;;;;1.55;1.45;;;;;;;14.43;66.72;99626.03;5067625;28;20515;-79
2022/05/09 06:41:15;;;;;;;0.88;0.85;;;;;;;14.65;65.30;99619.31;5067496;28;20061;-79
2022/05/09 06:43:42;;;;;;;0.10;0.10;;;;;;;14.90;63.33;99620.88;5067383;28;20119;-80
2022/05/09 06:46:08;;;;;;;0.38;0.38;;;;;;;15.07;63.92;99622.28;5067573;28;20087;-78
2022/05/09 06:48:33;;;;;;;0.60;0.60;;;;;;;15.21;63.05;99626.63;5067431;28;20456;-78
2022/05/09 06:50:58;;;;;;;0.50;0.50;;;;;;;15.44;63.20;99626.03;5067344;28;20055;-79
2022/05/09 06:53:24;;;;;;;0.20;0.20;;;;;;;15.49;62.21;99623.25;5067050;28;20122;-79
2022/05/09 06:55:50;;;;;;;0.10;0.10;;;;;;;15.64;60.94;99623.00;5067270;28;20112;-79
2022/05/09 06:58:22;;;;;;;0.28;0.28;;;;;;;15.67;59.92;99621.59;5050681;28;20029;-79
2022/05/09 07:00:47;;;;;;;0.20;0.20;;;;;;;15.77;60.17;99620.63;5050488;28;20025;-79
2022/05/09 07:03:13;;;;;;;0.10;0.10;;;;;;;15.97;59.65;99617.59;5067267;28;20029;-79
2022/05/09 07:05:43;;;;;;;0.20;0.20;;;;;;;16.05;59.34;99623.41;5066985;28;20041;-79
2022/05/09 07:08:09;;;;;;;0.30;0.30;;;;;;;16.14;58.50;99618.94;5050548;28;20499;-79
2022/05/09 07:10:35;;;;;;;0.93;0.50;;;;;;;16.21;58.74;99624.72;5051208;28;20100;-79
2022/05/09 07:13:01;;;;;;;0.10;0.10;;;;;;;16.41;59.33;99631.63;5066966;28;20033;-79
2022/05/09 07:15:30;;;;;;;0.43;0.43;;;;;;;16.46;56.64;99628.81;5066714;28;20075;-79
2022/05/09 07:17:58;;;;;;;0.68;0.68;;;;;;;16.52;55.83;99616.03;5066905;28;20570;-79
2022/05/09 07:20:25;;;;;;;0.00;0.00;;;;;;;16.62;57.84;99618.53;5066677;28;20056;-79
2022/05/09 07:22:54;;;;;;;0.10;0.10;;;;;;;16.69;55.55;99620.81;5066807;28;20399;-78
2022/05/09 07:25:21;;;;;;;0.30;0.30;;;;;;;16.63;54.59;99620.09;5066689;28;20471;-79
2022/05/09 07:27:46;;;;;;;0.10;0.10;;;;;;;16.69;53.09;99617.31;5066711;28;20041;-79
2022/05/09 07:30:14;;;;;;;0.10;0.10;;;;;;;16.71;52.55;99624.00;5051167;28;20094;-79
2022/05/09 07:32:40;;;;;;;0.10;0.10;;;;;;;16.80;53.30;99621.38;5065632;28;20060;-79
2022/05/09 07:35:08;;;;;;;0.10;0.10;;;;;;;16.79;52.31;99614.38;5066655;28;20496;-79
2022/05/09 07:37:33;;;;;;;0.00;0.00;;;;;;;16.76;52.26;99615.78;5049628;28;20033;-79
2022/05/09 07:39:59;;;;;;;0.10;0.10;;;;;;;16.92;52.69;99612.78;5050698;28;20071;-79
2022/05/09 07:42:24;;;;;;;0.47;0.47;;;;;;;16.93;53.12;99619.75;5066278;28;20071;-80
2022/05/09 07:44:52;;;;;;;26.80;0.93;;;;;;;16.93;53.18;99617.88;5066462;28;20021;-79
2022/05/09 07:47:18;;;;;;;0.10;0.10;;;;;;;16.96;52.75;99616.47;5066555;28;20479;-79
2022/05/09 07:49:45;;;;;;;1.38;0.30;;;;;;;17.03;52.63;99622.25;5066481;28;20058;-79
2022/05/09 07:52:11;;;;;;;0.43;0.43;;;;;;;17.07;52.67;99619.75;5066503;28;20040;-79
2022/05/09 07:54:37;;;;;;;0.03;0.03;;;;;;;17.14;52.39;99625.53;5050691;28;20093;-79
2022/05/09 07:57:03;;;;;;;0.50;0.50;;;;;;;17.07;52.78;99630.56;5049773;28;20031;-79
2022/05/09 07:59:29;;;;;;;0.30;0.30;;;;;;;17.08;51.74;99634.84;5066122;28;20017;-79
2022/05/09 08:01:55;;;;;;;0.22;0.22;;;;;;;17.10;52.70;99629.94;5066430;28;20556;-79
2022/05/09 08:04:21;;;;;;;0.00;0.00;;;;;;;17.16;52.35;99630.63;5066136;28;20040;-79
2022/05/09 08:06:46;;;;;;;0.10;0.10;;;;;;;17.19;52.72;99621.91;5066363;28;20408;-79
2022/05/09 08:09:12;;;;;;;0.90;0.63;;;;;;;17.18;51.48;99637.31;5066241;28;20496;-79
2022/05/09 08:11:39;;;;;;;0.35;0.35;;;;;;;17.13;51.73;99630.13;5065999;28;20029;-79
2022/05/09 08:14:05;;;;;;;0.00;0.00;;;;;;;17.10;51.03;99636.16;5049656;28;20021;-79
2022/05/09 08:16:31;;;;;;;0.10;0.10;;;;;;;17.10;51.50;99633.44;5066015;28;20029;-79
2022/05/09 08:18:58;;;;;;;0.10;0.10;;;;;;;17.19;50.28;99633.50;5066167;28;20049;-79
2022/05/09 08:21:24;;;;;;;0.50;0.50;;;;;;;17.20;49.53;99628.91;5066023;28;20099;-80
2022/05/09 08:23:51;;;;;;;0.00;0.00;;;;;;;17.25;48.88;99621.47;5066103;28;20431;-79
2022/05/09 08:26:21;;;;;;;0.32;0.30;;;;;;;17.35;49.50;99620.44;5066184;28;20592;-79
2022/05/09 08:28:47;;;;;;;0.08;0.08;;;;;;;17.48;48.76;99626.91;5049269;28;20025;-79
2022/05/09 08:31:18;;;;;;;0.10;0.10;;;;;;;17.55;46.07;99629.16;5049478;28;20447;-79
2022/05/09 08:33:44;;;;;;;0.00;0.00;;;;;;;17.59;44.89;99622.03;5066166;28;20048;-79
2022/05/09 08:36:09;;;;;;;0.30;0.30;;;;;;;17.67;44.63;99634.00;5050988;28;20108;-79
2022/05/09 08:38:35;;;;;;;0.22;0.22;;;;;;;17.61;43.08;99627.91;5065808;28;20025;-79
2022/05/09 08:41:12;;;;;;;0.00;0.00;;;;;;;17.62;42.27;99626.03;5066083;28;20122;-77
2022/05/09 08:44:02;;;;;;;0.00;0.00;;;;;;;17.73;44.20;99624.66;5051582;28;20025;-78
2022/05/09 08:46:44;;;;;;;0.10;0.10;;;;;;;17.82;43.91;99624.69;5069453;28;20084;-78
2022/05/09 08:49:34;;;;;;;0.05;0.05;;;;;;;17.88;43.71;99621.56;5069747;28;20111;-79
2022/05/09 08:52:26;;;;;;;0.10;0.10;;;;;;;17.93;43.23;99626.03;5069717;28;20056;-78
2022/05/09 08:54:54;;;;;;;0.10;0.10;;;;;;;17.88;43.66;99612.63;5049763;28;20029;-79
2022/05/09 08:57:36;;;;;;;0.20;0.20;;;;;;;18.02;44.60;99616.09;5052843;28;20412;-79
2022/05/09 09:00:15;;;;;;;0.10;0.10;;;;;;;18.20;45.92;99611.53;5053189;28;20127;-79
2022/05/09 09:02:56;;;;;;;0.00;0.00;;;;;;;18.34;44.56;99605.22;5068912;28;20494;-78
2022/05/09 09:05:25;;;;;;;0.00;0.00;;;;;;;18.37;45.12;99610.81;5052704;28;20021;-78
2022/05/09 09:08:14;;;;;;;0.10;0.10;;;;;;;18.43;44.95;99614.16;5069422;28;20021;-78
2022/05/09 09:11:12;;;;;;;0.10;0.10;;;;;;;18.56;45.49;99612.44;5051714;28;20033;-78
2022/05/09 09:13:45;;;;;;;0.30;0.30;;;;;;;18.69;44.42;99618.84;5069139;28;20059;-78
2022/05/09 09:16:37;;;;;;;0.45;0.20;;;;;;;18.77;45.34;99611.84;5069417;28;20091;-78
2022/05/09 09:20:00;;;;;;;0.10;0.10;;;;;;;18.90;45.62;99604.69;5069410;28;20063;-78
2022/05/09 09:22:59;;;;;;;0.03;0.03;;;;;;;19.06;46.22;99596.91;4991455;28;20469;-78
2022/05/09 09:25:28;;;;;;;0.10;0.10;;;;;;;19.09;45.91;99593.53;4991685;28;20494;-80
2022/05/09 09:28:18;;;;;;;0.17;0.17;;;;;;;19.25;46.81;99591.13;5039525;28;20480;-78
2022/05/09 09:30:46;;;;;;;0.10;0.10;;;;;;;19.37;43.90;99599.41;5051570;28;20079;-78
2022/05/09 09:33:16;;;;;;;0.00;0.00;;;;;;;19.47;45.66;99601.81;5069019;28;20082;-77
2022/05/09 09:36:00;;;;;;;0.10;0.10;;;;;;;19.50;43.25;99606.56;5068728;28;20075;-79
2022/05/09 09:39:13;;;;;;;0.10;0.10;;;;;;;19.43;43.97;99600.06;5068682;28;20520;-79
2022/05/09 09:41:39;;;;;;;0.10;0.10;;;;;;;19.49;44.64;99596.06;4974901;28;20466;-79
2022/05/09 09:44:21;;;;;;;0.10;0.10;;;;;;;19.52;44.12;99607.06;5042176;28;20061;-79
2022/05/09 09:47:04;;;;;;;0.40;0.40;;;;;;;19.50;43.78;99601.16;5068861;28;20106;-80
2022/05/09 09:49:36;;;;;;;0.10;0.10;;;;;;;19.47;44.09;99592.84;5068543;28;20021;-80
2022/05/09 09:52:04;;;;;;;0.10;0.10;;;;;;;19.57;45.42;99599.88;5068780;28;20032;-80
2022/05/09 09:54:33;;;;;;;0.10;0.10;;;;;;;19.54;44.88;99586.94;5068003;28;20467;-79
2022/05/09 09:57:20;;;;;;;0.10;0.10;;;;;;;19.59;45.83;99587.59;5068276;28;20056;-79
2022/05/09 09:59:46;;;;;;;0.10;0.10;;;;;;;19.65;45.51;99590.91;5068736;28;20029;-79
2022/05/09 10:02:23;;;;;;;0.43;0.43;;;;;;;19.75;45.48;99584.31;5051868;28;20431;-79
2022/05/09 10:04:48;;;;;;;0.10;0.10;;;;;;;19.84;45.90;99585.91;5068502;28;20116;-78
2022/05/09 10:07:29;;;;;;;0.40;0.40;;;;;;;19.87;45.79;99581.75;5068187;28;20025;-78
2022/05/09 10:10:14;;;;;;;0.05;0.05;;;;;;;19.94;46.32;99570.41;5068449;28;20063;-79
2022/05/09 10:12:49;;;;;;;0.10;0.10;;;;;;;20.04;45.75;99567.31;5068167;28;20124;-78
2022/05/09 10:15:35;;;;;;;0.10;0.10;;;;;;;20.08;45.07;99576.41;5051703;28;20033;-78
2022/05/09 10:18:23;;;;;;;0.10;0.10;;;;;;;20.11;45.69;99577.69;5051476;28;20023;-78
2022/05/09 10:20:51;;;;;;;0.00;0.00;;;;;;;20.11;45.80;99573.03;5051599;28;20029;-78
2022/05/09 10:26:19;;;;;;;1.98;1.02;;;;;;;20.17;44.86;99570.94;5052818;28;20056;-79
2022/05/09 10:28:53;;;;;;;0.30;0.30;;;;;;;20.14;44.19;99571.59;5067740;28;20036;-78
2022/05/09 10:31:35;;;;;;;0.00;0.00;;;;;;;20.16;46.13;99572.06;5051012;28;20385;-78
2022/05/09 10:34:07;;;;;;;0.20;0.20;;;;;;;20.26;46.25;99566.28;5068048;28;20083;-78
2022/05/09 10:36:46;;;;;;;0.10;0.10;;;;;;;20.29;46.03;99560.16;5067658;28;20472;-78
2022/05/09 10:39:31;;;;;;;0.10;0.10;;;;;;;20.44;45.54;99566.16;5051267;28;20510;-79
2022/05/09 10:41:59;;;;;;;0.10;0.10;;;;;;;20.44;45.56;99561.50;5067583;28;20059;-79
2022/05/09 10:44:28;;;;;;;0.10;0.10;;;;;;;20.45;45.09;99563.09;5051723;28;20109;-79
2022/05/09 10:47:03;;;;;;;1.05;0.52;;;;;;;20.42;45.19;99565.69;5067673;28;20028;-80
2022/05/09 10:50:01;;;;;;;0.47;0.47;;;;;;;20.50;45.26;99564.84;5067304;28;20507;-80
2022/05/09 10:52:44;;;;;;;0.73;0.73;;;;;;;20.60;45.09;99553.59;5016760;28;20492;-80
2022/05/09 10:55:18;;;;;;;0.15;0.15;;;;;;;20.57;43.99;99559.69;5067437;28;20120;-80
2022/05/09 10:57:57;;;;;;;0.20;0.20;;;;;;;20.46;43.98;99553.84;5050540;28;20025;-80
2022/05/09 11:00:25;;;;;;;0.10;0.10;;;;;;;20.44;44.55;99555.28;5050640;28;20112;-80
2022/05/09 11:03:06;;;;;;;0.10;0.10;;;;;;;20.39;44.09;99559.00;5067189;28;20472;-80
2022/05/09 11:06:12;;;;;;;0.45;0.45;;;;;;;20.41;44.42;99555.94;5050399;28;20039;-80
2022/05/09 11:09:01;;;;;;;0.25;0.25;;;;;;;20.50;44.60;99545.81;5022268;28;20037;-80
2022/05/09 11:11:51;;;;;;;0.00;0.00;;;;;;;20.51;43.49;99543.88;5067111;28;20098;-80
2022/05/09 11:14:34;;;;;;;0.10;0.10;;;;;;;20.61;43.43;99552.44;5066980;28;20044;-79
2022/05/09 11:17:36;;;;;;;0.13;0.13;;;;;;;20.56;39.89;99535.56;5066996;28;20112;-80
2022/05/09 11:20:08;;;;;;;0.03;0.03;;;;;;;20.71;40.31;99536.88;5050353;28;20033;-80
2022/05/09 11:23:04;;;;;;;0.00;0.00;;;;;;;20.77;37.76;99538.28;5066726;28;20025;-79
2022/05/09 11:26:00;;;;;;;0.20;0.20;;;;;;;20.72;38.24;99538.50;5066658;28;20032;-81
2022/05/09 11:28:50;;;;;;;0.05;0.05;;;;;;;20.77;36.20;99543.72;5049999;28;20028;-80
2022/05/09 11:31:32;;;;;;;0.10;0.10;;;;;;;20.71;37.68;99543.09;5066751;28;20135;-80
2022/05/09 11:34:23;;;;;;;0.52;0.52;;;;;;;20.82;38.86;99526.44;5050230;28;20028;-80
2022/05/09 11:36:59;;;;;;;0.20;0.20;;;;;;;20.78;39.39;99529.03;5021843;28;20526;-81
2022/05/09 11:39:49;;;;;;;0.00;0.00;;;;;;;20.82;39.18;99537.31;5066544;28;20476;-80
2022/05/09 11:45:46;;;;;;;0.10;0.10;;;;;;;21.18;40.61;99511.38;5051277;28;20451;-80
2022/05/09 11:48:30;;;;;;;0.40;0.40;;;;;;;21.26;36.50;99518.66;5051527;28;20025;-80
2022/05/09 11:51:23;;;;;;;0.10;0.10;;;;;;;21.27;37.14;99520.25;5066569;28;20419;-80
2022/05/09 11:53:56;;;;;;;0.00;0.00;;;;;;;21.36;37.43;99511.97;5066567;28;20511;-80
2022/05/09 11:56:22;;;;;;;0.10;0.10;;;;;;;21.39;35.90;99505.88;5066505;28;20095;-79
2022/05/09 11:58:48;;;;;;;0.80;0.43;;;;;;;21.30;32.40;99503.25;5065863;28;20025;-80
2022/05/09 12:01:13;;;;;;;0.10;0.10;;;;;;;21.33;32.72;99505.28;5066306;28;20040;-79
2022/05/09 12:03:38;;;;;;;0.10;0.10;;;;;;;21.30;31.72;99494.28;5066097;28;20112;-79
2022/05/09 12:06:06;;;;;;;0.10;0.10;;;;;;;21.36;29.00;99504.63;5066516;28;20025;-79